createdAt,value
2023-04-22T00:01:25.380Z,100998.03
2023-04-22T00:03:52.384Z,100997.00
2023-04-22T00:06:19.419Z,100997.75
2023-04-22T00:08:46.426Z,100992.56
2023-04-22T00:11:13.258Z,100986.31
2023-04-22T00:13:40.113Z,100981.63
2023-04-22T00:16:07.218Z,100977.44
2023-04-22T00:18:37.245Z,100979.00
2023-04-22T00:21:04.929Z,100974.81
2023-04-22T00:23:31.808Z,100972.47
2023-04-22T00:25:58.582Z,100984.38
2023-04-22T00:28:25.655Z,100976.56
2023-04-22T00:30:52.492Z,100979.41
2023-04-22T00:33:19.353Z,100981.19
2023-04-22T00:35:49.255Z,100987.13
2023-04-22T00:38:16.106Z,100985.53
2023-04-22T00:40:42.985Z,100990.69
2023-04-22T00:43:09.940Z,100984.69
2023-04-22T00:45:37.496Z,100982.28
2023-04-22T00:48:04.925Z,100978.38
2023-04-22T00:50:31.830Z,100983.03
2023-04-22T00:52:58.649Z,100972.38
2023-04-22T00:55:25.716Z,100990.47
2023-04-22T00:57:55.037Z,100983.47
2023-04-22T01:00:27.278Z,100981.63
2023-04-22T01:02:55.367Z,100984.69
2023-04-22T01:05:23.574Z,100988.34
2023-04-22T01:07:51.293Z,100986.47
2023-04-22T01:10:19.064Z,100983.03
2023-04-22T01:12:45.926Z,100984.56
2023-04-22T01:15:13.213Z,100986.63
2023-04-22T01:17:40.198Z,100993.88
2023-04-22T01:20:10.520Z,100983.47
2023-04-22T01:22:42.189Z,100984.22
2023-04-22T01:25:10.354Z,100985.97
2023-04-22T01:27:37.645Z,100988.03
2023-04-22T01:30:06.225Z,100983.31
2023-04-22T01:32:33.636Z,100985.38
2023-04-22T01:35:00.523Z,100979.66
2023-04-22T01:37:27.318Z,100977.81
2023-04-22T01:39:54.485Z,100982.69
2023-04-22T01:42:21.656Z,100981.63
2023-04-22T01:44:48.437Z,100977.47
2023-04-22T01:47:15.293Z,100977.94
2023-04-22T01:49:42.420Z,100982.84
2023-04-22T01:52:09.877Z,100987.47
2023-04-22T01:54:36.960Z,100975.31
2023-04-22T01:57:10.744Z,100977.88
2023-04-22T01:59:38.411Z,100977.88
2023-04-22T02:02:05.606Z,100967.00
2023-04-22T02:04:33.115Z,100980.22
2023-04-22T02:06:59.978Z,100979.91
2023-04-22T02:09:26.876Z,100974.44
2023-04-22T02:11:53.721Z,100975.94
2023-04-22T02:14:20.798Z,100972.03
2023-04-22T02:16:47.584Z,100968.66
2023-04-22T02:19:14.380Z,100971.50
2023-04-22T02:21:41.224Z,100975.09
2023-04-22T02:24:08.186Z,100967.59
2023-04-22T02:26:35.002Z,100973.53
2023-04-22T02:29:02.015Z,100973.78
2023-04-22T02:31:28.893Z,100974.81
2023-04-22T02:33:55.920Z,100968.84
2023-04-22T02:36:22.755Z,100965.72
2023-04-22T02:38:50.041Z,100957.41
2023-04-22T02:41:16.936Z,100963.13
2023-04-22T02:43:46.310Z,100958.97
2023-04-22T02:46:16.351Z,100952.22
2023-04-22T02:48:43.687Z,100957.41
2023-04-22T02:51:11.378Z,100952.78
2023-04-22T02:53:38.235Z,100945.00
2023-04-22T02:56:05.804Z,100955.13
2023-04-22T02:58:32.753Z,100957.47
2023-04-22T03:00:59.646Z,100958.25
2023-04-22T03:03:27.019Z,100950.72
2023-04-22T03:05:54.068Z,100946.59
2023-04-22T03:08:21.057Z,100935.41
2023-04-22T03:10:48.148Z,100945.78
2023-04-22T03:13:15.096Z,100938.00
2023-04-22T03:15:41.938Z,100942.94
2023-04-22T03:18:09.224Z,100939.81
2023-04-22T03:20:36.635Z,100928.22
2023-04-22T03:23:03.557Z,100931.34
2023-04-22T03:25:30.395Z,100931.34
2023-04-22T03:27:57.254Z,100922.53
2023-04-22T03:30:24.286Z,100929.00
2023-04-22T03:32:52.647Z,100934.72
2023-04-22T03:35:20.692Z,100929.31
2023-04-22T03:37:47.501Z,100929.31
2023-04-22T03:40:14.449Z,100922.84
2023-04-22T03:42:41.258Z,100917.44
2023-04-22T03:45:08.304Z,100917.97
2023-04-22T03:47:35.127Z,100916.16
2023-04-22T03:50:02.113Z,100909.41
2023-04-22T03:52:28.918Z,100910.97
2023-04-22T03:54:55.762Z,100906.81
2023-04-22T03:57:22.681Z,100909.16
2023-04-22T03:59:49.481Z,100903.75
2023-04-22T04:02:16.476Z,100909.47
2023-04-22T04:04:43.672Z,100898.59
2023-04-22T04:07:10.674Z,100895.00
2023-04-22T04:09:37.922Z,100895.75
2023-04-22T04:12:05.106Z,100892.41
2023-04-22T04:14:31.919Z,100888.78
2023-04-22T04:16:58.754Z,100887.75
2023-04-22T04:19:25.529Z,100881.00
2023-04-22T04:21:52.311Z,100891.91
2023-04-22T04:24:19.461Z,100879.22
2023-04-22T04:26:46.272Z,100875.81
2023-04-22T04:29:13.856Z,100881.00
2023-04-22T04:31:41.542Z,100890.34
2023-04-22T04:34:08.446Z,100890.09
2023-04-22T04:36:35.469Z,100876.34
2023-04-22T04:39:02.310Z,100878.94
2023-04-22T04:41:29.751Z,100880.53
2023-04-22T04:43:56.736Z,100891.41
2023-04-22T04:46:23.629Z,100890.41
2023-04-22T04:48:51.850Z,100886.00
2023-04-22T04:51:20.352Z,100878.00
2023-04-22T04:53:47.440Z,100872.31
2023-04-22T04:56:14.278Z,100863.25
2023-04-22T04:58:41.168Z,100865.66
2023-04-22T05:01:08.013Z,100868.28
2023-04-22T05:03:34.950Z,100865.72
2023-04-22T05:06:02.098Z,100865.22
2023-04-22T05:08:28.946Z,100862.66
2023-04-22T05:10:56.208Z,100865.56
2023-04-22T05:13:22.973Z,100858.03
2023-04-22T05:15:49.985Z,100870.50
2023-04-22T05:18:16.823Z,100871.03
2023-04-22T05:20:43.709Z,100872.88
2023-04-22T05:23:10.591Z,100871.59
2023-04-22T05:25:37.693Z,100878.09
2023-04-22T05:28:04.443Z,100877.34
2023-04-22T05:30:31.307Z,100880.47
2023-04-22T05:32:58.254Z,100875.31
2023-04-22T05:35:25.087Z,100882.59
2023-04-22T05:37:51.954Z,100883.66
2023-04-22T05:40:19.406Z,100877.97
2023-04-22T05:42:46.162Z,100882.91
2023-04-22T05:45:13.013Z,100882.16
2023-04-22T05:47:39.817Z,100886.34
2023-04-22T05:50:07.396Z,100886.16
2023-04-22T05:52:34.188Z,100887.75
2023-04-22T05:55:01.001Z,100878.69
2023-04-22T05:57:27.885Z,100885.47
2023-04-22T05:59:54.655Z,100883.38
2023-04-22T06:02:21.638Z,100882.38
2023-04-22T06:04:48.845Z,100884.75
2023-04-22T06:07:16.004Z,100881.91
2023-04-22T06:09:43.007Z,100881.41
2023-04-22T06:12:11.027Z,100882.47
2023-04-22T06:14:37.778Z,100878.31
2023-04-22T06:17:04.679Z,100870.00
2023-04-22T06:19:31.385Z,100870.00
2023-04-22T06:21:58.197Z,100876.22
2023-04-22T06:24:25.022Z,100879.91
2023-04-22T06:26:51.907Z,100876.22
2023-04-22T06:29:18.838Z,100864.53
2023-04-22T06:31:45.858Z,100874.38
2023-04-22T06:34:12.792Z,100853.28
2023-04-22T06:36:40.035Z,100846.44
2023-04-22T06:39:07.555Z,100856.78
2023-04-22T06:41:34.433Z,100853.78
2023-04-22T06:44:01.252Z,100847.16
2023-04-22T06:46:28.103Z,100843.63
2023-04-22T06:48:54.961Z,100829.72
2023-04-22T06:51:21.906Z,100833.75
2023-04-22T06:53:48.728Z,100835.66
2023-04-22T06:56:15.848Z,100829.41
2023-04-22T06:58:42.734Z,100832.00
2023-04-22T07:01:09.700Z,100836.03
2023-04-22T07:03:36.729Z,100824.38
2023-04-22T07:06:04.134Z,100826.34
2023-04-22T07:08:30.948Z,100823.59
2023-04-22T07:10:58.115Z,100812.41
2023-04-22T07:13:24.962Z,100817.34
2023-04-22T07:15:51.808Z,100811.13
2023-04-22T07:18:18.968Z,100813.81
2023-04-22T07:20:45.809Z,100831.50
2023-04-22T07:23:12.633Z,100822.84
2023-04-22T07:25:39.593Z,100826.97
2023-04-22T07:28:06.439Z,100825.63
2023-04-22T07:30:33.384Z,100827.78
2023-04-22T07:33:00.263Z,100816.66
2023-04-22T07:35:28.839Z,100822.16
2023-04-22T07:37:55.740Z,100814.69
2023-04-22T07:40:22.624Z,100811.94
2023-04-22T07:42:49.455Z,100808.38
2023-04-22T07:45:16.507Z,100809.41
2023-04-22T07:47:43.432Z,100821.72
2023-04-22T07:50:10.858Z,100828.97
2023-04-22T07:52:37.852Z,100822.88
2023-04-22T07:55:05.268Z,100829.41
2023-04-22T07:57:36.367Z,100824.97
2023-04-22T08:00:03.850Z,100835.41
2023-04-22T08:02:30.712Z,100835.03
2023-04-22T08:04:57.698Z,100842.34
2023-04-22T08:09:56.884Z,100839.53
2023-04-22T08:12:23.891Z,100833.06
2023-04-22T08:14:50.966Z,100827.31
2023-04-22T08:17:21.932Z,100825.47
2023-04-22T08:19:49.190Z,100810.88
2023-04-22T08:22:18.008Z,100809.31
2023-04-22T08:24:45.012Z,100803.97
2023-04-22T08:27:11.773Z,100804.66
2023-04-22T08:29:38.937Z,100797.75
2023-04-22T08:32:06.130Z,100785.75
2023-04-22T08:34:33.018Z,100777.06
2023-04-22T08:36:59.946Z,100781.25
2023-04-22T08:39:26.857Z,100770.09
2023-04-22T08:41:56.417Z,100777.56
2023-04-22T08:44:23.803Z,100777.72
2023-04-22T08:46:51.897Z,100776.66
2023-04-22T08:49:19.722Z,100774.41
2023-04-22T08:51:46.777Z,100770.50
2023-04-22T08:54:13.795Z,100770.75
2023-04-22T08:56:43.722Z,100769.28
2023-04-22T08:59:12.188Z,100772.09
2023-04-22T09:01:41.197Z,100771.09
2023-04-22T09:04:11.186Z,100764.84
2023-04-22T09:06:39.369Z,100773.75
2023-04-22T09:09:06.379Z,100768.94
2023-04-22T09:11:34.542Z,100760.75
2023-04-22T09:14:02.603Z,100757.47
2023-04-22T09:16:33.449Z,100748.84
2023-04-22T09:19:01.237Z,100754.13
2023-04-22T09:21:29.111Z,100746.53
2023-04-22T09:23:57.078Z,100751.47
2023-04-22T09:26:26.261Z,100744.47
2023-04-22T09:28:59.074Z,100741.25
2023-04-22T09:31:27.453Z,100741.41
2023-04-22T09:34:00.979Z,100741.19
2023-04-22T09:36:29.480Z,100728.91
2023-04-22T09:38:59.657Z,100729.88
2023-04-22T09:41:30.496Z,100723.91
2023-04-22T09:43:58.951Z,100722.44
2023-04-22T09:46:27.438Z,100713.31
2023-04-22T09:48:59.394Z,100717.47
2023-04-22T09:51:27.712Z,100707.00
2023-04-22T09:54:11.594Z,100716.00
2023-04-22T09:56:48.826Z,100718.66
2023-04-22T09:59:21.646Z,100704.94
2023-04-22T10:01:50.088Z,100700.59
2023-04-22T10:04:21.486Z,100707.81
2023-04-22T10:06:49.010Z,100710.19
2023-04-22T10:09:20.390Z,100702.47
2023-04-22T10:11:48.704Z,100709.72
2023-04-22T10:14:16.238Z,100694.22
2023-04-22T10:16:48.036Z,100691.41
2023-04-22T10:19:24.392Z,100693.44
2023-04-22T10:21:56.059Z,100694.75
2023-04-22T10:24:27.220Z,100692.84
2023-04-22T10:26:56.893Z,100704.00
2023-04-22T10:29:25.709Z,100700.84
2023-04-22T10:31:55.624Z,100705.53
2023-04-22T10:34:22.851Z,100701.69
2023-04-22T10:37:07.246Z,100705.81
2023-04-22T10:39:34.167Z,100704.25
2023-04-22T10:42:03.642Z,100700.72
2023-04-22T10:44:53.205Z,100703.88
2023-04-22T10:47:27.192Z,100699.66
2023-04-22T10:50:12.600Z,100712.63
2023-04-22T10:52:42.190Z,100717.94
2023-04-22T10:55:09.253Z,100713.47
2023-04-22T10:57:43.824Z,100723.13
2023-04-22T11:00:24.324Z,100709.75
2023-04-22T11:03:13.059Z,100707.69
2023-04-22T11:05:40.891Z,100714.63
2023-04-22T11:08:20.597Z,100726.81
2023-04-22T11:10:49.701Z,100725.06
2023-04-22T11:13:24.257Z,100725.91
2023-04-22T11:15:54.310Z,100724.25
2023-04-22T11:18:26.257Z,100721.94
2023-04-22T11:20:53.967Z,100728.59
2023-04-22T11:23:25.378Z,100722.13
2023-04-22T11:25:59.952Z,100709.16
2023-04-22T11:28:27.155Z,100708.16
2023-04-22T11:31:02.506Z,100710.06
2023-04-22T11:33:29.523Z,100714.72
2023-04-22T11:35:58.025Z,100717.69
2023-04-22T11:38:24.776Z,100728.56
2023-04-22T11:40:51.993Z,100727.34
2023-04-22T11:43:18.955Z,100729.22
2023-04-22T11:45:45.881Z,100727.06
2023-04-22T11:48:12.965Z,100722.19
2023-04-22T11:50:41.428Z,100717.91
2023-04-22T11:53:24.289Z,100742.69
2023-04-22T11:55:52.260Z,100746.00
2023-04-22T11:58:27.488Z,100741.44
2023-04-22T12:00:57.818Z,100726.84
2023-04-22T12:03:27.053Z,100741.72
2023-04-22T12:05:57.704Z,100744.16
2023-04-22T12:08:26.944Z,100744.78
2023-04-22T12:10:59.389Z,100732.13
2023-04-22T12:13:30.500Z,100733.97
2023-04-22T12:16:02.602Z,100738.34
2023-04-22T12:18:33.136Z,100730.66
2023-04-22T12:21:11.088Z,100729.75
2023-04-22T12:23:48.797Z,100740.53
2023-04-22T12:26:17.599Z,100740.53
2023-04-22T12:28:45.822Z,100740.41
2023-04-22T12:31:15.449Z,100737.13
2023-04-22T12:33:43.103Z,100746.81
2023-04-22T12:36:10.684Z,100743.19
2023-04-22T12:38:38.349Z,100751.06
2023-04-22T12:41:06.496Z,100745.78
2023-04-22T12:43:36.753Z,100748.19
2023-04-22T12:46:04.611Z,100745.53
2023-04-22T12:48:31.864Z,100744.53
2023-04-22T12:50:59.334Z,100745.25
2023-04-22T12:53:28.395Z,100744.44
2023-04-22T12:55:55.999Z,100738.09
2023-04-22T12:58:23.152Z,100749.94
2023-04-22T13:00:49.997Z,100745.59
2023-04-22T13:03:17.099Z,100747.41
2023-04-22T13:05:45.232Z,100751.94
2023-04-22T13:08:12.411Z,100741.03
2023-04-22T13:10:39.445Z,100742.44
2023-04-22T13:15:39.146Z,100729.97
2023-04-22T13:18:06.582Z,100732.91
2023-04-22T13:20:33.739Z,100736.00
2023-04-22T13:23:02.403Z,100737.72
2023-04-22T13:25:29.475Z,100743.44
2023-04-22T13:27:56.342Z,100749.16
2023-04-22T13:30:23.144Z,100741.75
2023-04-22T13:32:49.921Z,100744.09
2023-04-22T13:35:18.564Z,100746.88
2023-04-22T13:37:46.416Z,100756.78
2023-04-22T13:40:14.614Z,100767.44
2023-04-22T13:42:42.054Z,100763.13
2023-04-22T13:45:09.524Z,100766.41
2023-04-22T13:47:36.683Z,100761.16
2023-04-22T13:50:05.515Z,100763.13
2023-04-22T13:52:32.452Z,100765.97
2023-04-22T13:54:59.343Z,100759.81
2023-04-22T13:57:26.246Z,100762.75
2023-04-22T13:59:53.094Z,100766.81
2023-04-22T14:02:19.998Z,100769.94
2023-04-22T14:04:46.869Z,100767.31
2023-04-22T14:07:13.736Z,100762.81
2023-04-22T14:09:40.789Z,100761.16
2023-04-22T14:12:09.106Z,100757.59
2023-04-22T14:14:36.072Z,100768.13
2023-04-22T14:17:03.446Z,100750.03
2023-04-22T14:19:31.961Z,100750.13
2023-04-22T14:21:58.801Z,100756.97
2023-04-22T14:24:25.841Z,100756.50
2023-04-22T14:26:53.045Z,100764.84
2023-04-22T14:29:20.389Z,100752.63
2023-04-22T14:31:47.385Z,100755.13
2023-04-22T14:34:14.225Z,100755.88
2023-04-22T14:36:41.109Z,100756.06
2023-04-22T14:39:08.107Z,100752.38
2023-04-22T14:41:35.146Z,100755.00
2023-04-22T14:44:02.098Z,100749.13
2023-04-22T14:46:30.631Z,100754.84
2023-04-22T14:48:57.571Z,100759.78
2023-04-22T14:51:24.689Z,100760.28
2023-04-22T14:53:51.823Z,100754.09
2023-04-22T14:56:19.411Z,100752.06
2023-04-22T14:58:46.861Z,100745.91
2023-04-22T15:01:13.795Z,100748.97
2023-04-22T15:03:41.390Z,100753.31
2023-04-22T15:06:08.471Z,100758.28
2023-04-22T15:08:35.528Z,100752.56
2023-04-22T15:11:02.348Z,100757.97
2023-04-22T15:13:29.141Z,100749.16
2023-04-22T15:15:56.015Z,100754.72
2023-04-22T15:18:23.208Z,100750.22
2023-04-22T15:20:50.056Z,100761.06
2023-04-22T15:23:16.863Z,100753.78
2023-04-22T15:25:43.732Z,100757.81
2023-04-22T15:28:10.638Z,100762.28
2023-04-22T15:30:37.471Z,100760.09
2023-04-22T15:33:05.081Z,100759.81
2023-04-22T15:35:32.280Z,100756.84
2023-04-22T15:37:59.157Z,100766.28
2023-04-22T15:40:26.117Z,100762.72
2023-04-22T15:42:52.965Z,100767.81
2023-04-22T15:45:20.449Z,100769.03
2023-04-22T15:47:47.519Z,100772.41
2023-04-22T15:50:14.481Z,100781.34
2023-04-22T15:52:41.423Z,100774.19
2023-04-22T15:55:09.493Z,100769.88
2023-04-22T15:57:36.681Z,100768.31
2023-04-22T16:00:12.330Z,100765.69
2023-04-22T16:02:40.811Z,100766.13
2023-04-22T16:05:08.271Z,100771.38
2023-04-22T16:07:35.527Z,100775.03
2023-04-22T16:10:02.696Z,100782.13
2023-04-22T16:12:30.457Z,100783.34
2023-04-22T16:14:58.338Z,100784.00
2023-04-22T16:17:25.355Z,100782.28
2023-04-22T16:19:52.300Z,100784.44
2023-04-22T16:22:19.320Z,100799.03
2023-04-22T16:24:46.230Z,100798.66
2023-04-22T16:27:16.831Z,100803.28
2023-04-22T16:29:44.266Z,100803.63
2023-04-22T16:32:11.865Z,100806.09
2023-04-22T16:34:39.056Z,100807.88
2023-04-22T16:37:06.323Z,100806.75
2023-04-22T16:39:33.967Z,100810.72
2023-04-22T16:42:02.421Z,100826.63
2023-04-22T16:44:29.378Z,100825.94
2023-04-22T16:46:56.293Z,100828.94
2023-04-22T16:49:23.502Z,100827.97
2023-04-22T16:51:50.701Z,100838.63
2023-04-22T16:54:17.577Z,100832.25
2023-04-22T16:56:44.588Z,100831.25
2023-04-22T16:59:11.558Z,100826.03
2023-04-22T17:01:39.894Z,100820.91
2023-04-22T17:04:07.026Z,100817.22
2023-04-22T17:06:34.240Z,100814.03
2023-04-22T17:09:01.206Z,100815.56
2023-04-22T17:11:32.360Z,100808.22
2023-04-22T17:13:59.493Z,100808.72
2023-04-22T17:16:26.465Z,100819.56
2023-04-22T17:18:53.594Z,100819.84
2023-04-22T17:21:23.159Z,100804.06
2023-04-22T17:23:50.643Z,100817.34
2023-04-22T17:26:17.757Z,100813.34
2023-04-22T17:28:44.730Z,100817.53
2023-04-22T17:31:12.344Z,100816.25
2023-04-22T17:33:40.993Z,100818.09
2023-04-22T17:36:08.106Z,100822.78
2023-04-22T17:38:35.286Z,100810.53
2023-04-22T17:41:02.274Z,100826.63
2023-04-22T17:43:29.405Z,100822.56
2023-04-22T17:45:56.528Z,100821.38
2023-04-22T17:48:23.531Z,100817.03
2023-04-22T17:50:50.854Z,100822.44
2023-04-22T17:53:17.906Z,100829.09
2023-04-22T17:55:44.853Z,100835.66
2023-04-22T17:58:11.812Z,100833.34
2023-04-22T18:00:39.238Z,100834.09
2023-04-22T18:03:06.454Z,100833.13
2023-04-22T18:05:33.536Z,100836.34
2023-04-22T18:08:02.907Z,100848.97
2023-04-22T18:10:30.564Z,100842.78
2023-04-22T18:12:57.452Z,100845.44
2023-04-22T18:15:24.403Z,100855.91
2023-04-22T18:17:51.602Z,100852.72
2023-04-22T18:20:19.935Z,100865.53
2023-04-22T18:22:52.257Z,100861.84
2023-04-22T18:25:19.222Z,100865.22
2023-04-22T18:27:46.491Z,100869.41
2023-04-22T18:30:13.597Z,100872.28
2023-04-22T18:32:40.673Z,100880.00
2023-04-22T18:35:08.321Z,100881.41
2023-04-22T18:37:35.167Z,100883.69
2023-04-22T18:40:02.639Z,100888.47
2023-04-22T18:42:30.065Z,100894.56
2023-04-22T18:44:56.977Z,100897.81
2023-04-22T18:47:23.960Z,100894.28
2023-04-22T18:49:50.957Z,100891.72
2023-04-22T18:52:18.254Z,100899.13
2023-04-22T18:54:45.130Z,100906.50
2023-04-22T18:57:12.279Z,100914.66
2023-04-22T18:59:39.800Z,100916.06
2023-04-22T19:02:06.783Z,100922.59
2023-04-22T19:04:33.971Z,100920.31
2023-04-22T19:07:01.099Z,100925.59
2023-04-22T19:09:28.078Z,100929.28
2023-04-22T19:11:55.927Z,100927.00
2023-04-22T19:14:22.817Z,100936.41
2023-04-22T19:16:49.824Z,100939.59
2023-04-22T19:19:16.706Z,100943.53
2023-04-22T19:21:43.726Z,100940.41
2023-04-22T19:24:10.939Z,100937.34
2023-04-22T19:26:37.901Z,100935.81
2023-04-22T19:29:04.795Z,100943.13
2023-04-22T19:31:31.710Z,100948.84
2023-04-22T19:33:59.507Z,100937.94
2023-04-22T19:36:27.109Z,100942.91
2023-04-22T19:38:53.893Z,100951.28
2023-04-22T19:41:20.799Z,100950.25
2023-04-22T19:43:47.536Z,100963.88
2023-04-22T19:46:14.399Z,100955.56
2023-04-22T19:48:41.689Z,100949.59
2023-04-22T19:51:11.134Z,100942.88
2023-04-22T19:53:39.646Z,100941.34
2023-04-22T19:56:07.105Z,100942.94
2023-04-22T19:58:34.025Z,100942.22
2023-04-22T20:01:01.294Z,100946.16
2023-04-22T20:03:28.741Z,100956.34
2023-04-22T20:05:56.395Z,100955.53
2023-04-22T20:08:27.120Z,100949.34
2023-04-22T20:10:55.089Z,100955.63
2023-04-22T20:13:22.863Z,100954.84
2023-04-22T20:15:50.394Z,100953.06
2023-04-22T20:18:17.828Z,100961.38
2023-04-22T20:20:48.397Z,100959.03
2023-04-22T20:23:15.972Z,100957.22
2023-04-22T20:25:47.190Z,100951.78
2023-04-22T20:28:14.334Z,100954.13
2023-04-22T20:30:41.639Z,100948.94
2023-04-22T20:33:12.302Z,100949.75
2023-04-22T20:35:40.555Z,100952.09
2023-04-22T20:38:09.468Z,100948.16
2023-04-22T20:40:36.701Z,100946.38
2023-04-22T20:43:03.685Z,100938.59
2023-04-22T20:45:30.681Z,100933.94
2023-04-22T20:47:58.516Z,100932.09
2023-04-22T20:50:26.644Z,100930.28
2023-04-22T20:52:53.589Z,100935.75
2023-04-22T20:55:20.411Z,100932.34
2023-04-22T20:57:47.194Z,100939.63
2023-04-22T21:00:14.813Z,100936.00
2023-04-22T21:02:43.219Z,100927.69
2023-04-22T21:05:11.419Z,100926.16
2023-04-22T21:07:40.206Z,100930.81
2023-04-22T21:10:08.277Z,100938.63
2023-04-22T21:12:35.541Z,100933.41
2023-04-22T21:15:02.742Z,100939.41
2023-04-22T21:17:33.773Z,100933.41
2023-04-22T21:20:04.236Z,100923.00
2023-04-22T21:22:31.885Z,100931.84
2023-04-22T21:24:59.126Z,100928.22
2023-04-22T21:27:26.854Z,100931.06
2023-04-22T21:29:54.569Z,100923.53
2023-04-22T21:32:21.979Z,100928.44
2023-04-22T21:34:48.804Z,100929.75
2023-04-22T21:37:15.697Z,100927.13
2023-04-22T21:39:42.558Z,100928.19
2023-04-22T21:42:09.444Z,100919.06
2023-04-22T21:44:37.549Z,100918.03
2023-04-22T21:47:05.921Z,100922.44
2023-04-22T21:49:32.836Z,100924.53
2023-04-22T21:51:59.920Z,100931.78
2023-04-22T21:54:26.744Z,100933.59
2023-04-22T21:56:53.709Z,100942.69
2023-04-22T21:59:20.587Z,100936.44
2023-04-22T22:01:47.400Z,100947.84
2023-04-22T22:04:16.138Z,100943.94
2023-04-22T22:06:44.964Z,100944.97
2023-04-22T22:09:12.816Z,100940.81
2023-04-22T22:11:39.654Z,100940.03
2023-04-22T22:14:06.492Z,100942.13
2023-04-22T22:16:33.657Z,100944.47
2023-04-22T22:19:02.876Z,100944.72
2023-04-22T22:21:29.824Z,100941.88
2023-04-22T22:23:57.814Z,100946.81
2023-04-22T22:26:24.889Z,100953.31
2023-04-22T22:28:51.708Z,100944.75
2023-04-22T22:31:18.801Z,100944.75
2023-04-22T22:33:46.007Z,100946.06
2023-04-22T22:36:12.787Z,100947.63
2023-04-22T22:38:39.683Z,100949.97
2023-04-22T22:41:06.428Z,100946.31
2023-04-22T22:43:33.275Z,100953.88
2023-04-22T22:46:00.124Z,100954.13
2023-04-22T22:48:27.121Z,100958.28
2023-04-22T22:50:53.933Z,100965.03
2023-04-22T22:53:21.616Z,100961.91
2023-04-22T22:55:48.452Z,100963.47
2023-04-22T22:58:15.320Z,100962.69
2023-04-22T23:00:42.208Z,100970.75
2023-04-22T23:03:09.580Z,100955.16
2023-04-22T23:05:36.694Z,100961.13
2023-04-22T23:08:03.560Z,100956.97
2023-04-22T23:10:30.487Z,100957.25
2023-04-22T23:12:57.296Z,100964.75
2023-04-22T23:15:24.085Z,100966.56
2023-04-22T23:17:51.285Z,100972.81
2023-04-22T23:20:18.405Z,100958.00
2023-04-22T23:22:45.549Z,100964.22
2023-04-22T23:25:13.113Z,100962.69
2023-04-22T23:27:41.818Z,100955.66
2023-04-22T23:30:09.229Z,100956.72
2023-04-22T23:32:39.806Z,100950.72
2023-04-22T23:35:08.527Z,100949.69
2023-04-22T23:37:37.940Z,100949.41
2023-04-22T23:40:06.878Z,100942.41
2023-04-22T23:42:33.805Z,100934.63
2023-04-22T23:45:00.658Z,100939.56
2023-04-22T23:47:27.644Z,100938.00
2023-04-22T23:49:54.507Z,100928.66
2023-04-22T23:52:21.328Z,100921.88
2023-04-22T23:54:49.925Z,100919.28
2023-04-22T23:57:17.049Z,100909.94
2023-04-22T23:59:44.626Z,100914.09
